EFSI

Seinäjoki

Airport
ICAO code
EFSI
IATA Code
SJY
Summary
ICAO Region
EUR
ICAO Territory
Location

Ilmajoki, South Ostrobothnia

Serving
Seinajoki
Elevation
302 ft
Coordinates
62° 41' 37" N , 22° 49' 44" E
KCC
Metar
Observation
EFSI 060420Z AUTO 19014G24KT 160V220 7000 -SHRA OVC007 //////CB 13/13 Q0990
Station
Seinajoki-Ilmajok
Date/Time
2022-10-06 04:20:00
Wind direction
190°
Wind speed
14 kts
Lowest cloud amount
overcast
Temperature
13°C
Dew point
13°C
Humidity
100%
QNH
990 hPa
Weather condition
n/a

Seinäjoki Airport is an airport serving Seinäjoki, a city in the Southern Ostrobothnia region of Finland. It is located 6 nm south-southwest of the city, in the municipality of Ilmajoki.

Climatology

Subarctic climate (Köppen climate classification Dfc)

Runways

Designator Length Width Surface Rops
14/32 1543 30 ASP No/No

Airport map

Aerial View

SKYbrary Partners:

Safety knowledge contributed by: